sensor_id;sensor_type;location;lat;lon;timestamp;pressure;altitude;pressure_sealevel;temperature;humidity
23339;BME280;11841;49.368;20.962;2022-09-12T00:03:38;95444.59;;;13.06;86.09
23339;BME280;11841;49.368;20.962;2022-09-12T00:06:16;95439.34;;;13.11;85.77
23339;BME280;11841;49.368;20.962;2022-09-12T00:08:48;95441.69;;;13.07;85.52
23339;BME280;11841;49.368;20.962;2022-09-12T00:11:15;95437.50;;;13.00;86.02
23339;BME280;11841;49.368;20.962;2022-09-12T00:13:42;95439.13;;;13.01;86.01
23339;BME280;11841;49.368;20.962;2022-09-12T00:16:20;95449.56;;;13.02;85.94
23339;BME280;11841;49.368;20.962;2022-09-12T00:18:47;95430.69;;;13.04;85.83
23339;BME280;11841;49.368;20.962;2022-09-12T00:21:16;95439.50;;;13.04;85.83
23339;BME280;11841;49.368;20.962;2022-09-12T00:23:43;95446.09;;;13.02;86.10
23339;BME280;11841;49.368;20.962;2022-09-12T00:26:10;95437.63;;;13.05;85.95
23339;BME280;11841;49.368;20.962;2022-09-12T00:28:38;95435.53;;;13.07;85.93
23339;BME280;11841;49.368;20.962;2022-09-12T00:31:07;95441.44;;;13.09;85.63
23339;BME280;11841;49.368;20.962;2022-09-12T00:33:34;95433.94;;;13.06;85.68
23339;BME280;11841;49.368;20.962;2022-09-12T00:36:11;95431.53;;;13.04;85.25
23339;BME280;11841;49.368;20.962;2022-09-12T00:38:38;95417.28;;;12.99;84.70
23339;BME280;11841;49.368;20.962;2022-09-12T00:41:14;95424.19;;;13.00;84.60
23339;BME280;11841;49.368;20.962;2022-09-12T00:43:45;95432.66;;;12.97;84.82
23339;BME280;11841;49.368;20.962;2022-09-12T00:46:38;95431.63;;;12.98;84.37
23339;BME280;11841;49.368;20.962;2022-09-12T00:49:18;95430.97;;;12.91;84.60
23339;BME280;11841;49.368;20.962;2022-09-12T00:52:02;95426.44;;;12.91;84.47
23339;BME280;11841;49.368;20.962;2022-09-12T00:54:35;95427.88;;;12.82;84.37
23339;BME280;11841;49.368;20.962;2022-09-12T00:57:06;95425.13;;;12.77;84.79
23339;BME280;11841;49.368;20.962;2022-09-12T00:59:40;95427.06;;;12.82;84.54
23339;BME280;11841;49.368;20.962;2022-09-12T01:02:10;95414.09;;;12.85;84.91
23339;BME280;11841;49.368;20.962;2022-09-12T01:04:37;95424.63;;;12.80;85.09
23339;BME280;11841;49.368;20.962;2022-09-12T01:07:06;95412.50;;;12.73;85.31
23339;BME280;11841;49.368;20.962;2022-09-12T01:09:34;95414.97;;;12.74;85.03
23339;BME280;11841;49.368;20.962;2022-09-12T01:12:02;95405.44;;;12.78;85.29
23339;BME280;11841;49.368;20.962;2022-09-12T01:14:30;95424.06;;;12.78;85.37
23339;BME280;11841;49.368;20.962;2022-09-12T01:16:57;95430.19;;;12.79;85.13
23339;BME280;11841;49.368;20.962;2022-09-12T01:23:03;95426.97;;;12.77;85.13
23339;BME280;11841;49.368;20.962;2022-09-12T01:33:54;95420.50;;;12.73;84.68
23339;BME280;11841;49.368;20.962;2022-09-12T01:36:42;95429.28;;;12.73;84.64
23339;BME280;11841;49.368;20.962;2022-09-12T01:42:27;95420.97;;;12.70;85.03
23339;BME280;11841;49.368;20.962;2022-09-12T01:45:29;95423.28;;;12.66;85.20
23339;BME280;11841;49.368;20.962;2022-09-12T01:50:46;95414.28;;;12.56;85.38
23339;BME280;11841;49.368;20.962;2022-09-12T01:53:26;95428.16;;;12.58;84.15
23339;BME280;11841;49.368;20.962;2022-09-12T01:56:00;95427.16;;;12.59;84.37
23339;BME280;11841;49.368;20.962;2022-09-12T01:58:37;95422.06;;;12.57;84.78
23339;BME280;11841;49.368;20.962;2022-09-12T02:01:11;95421.00;;;12.58;84.65
23339;BME280;11841;49.368;20.962;2022-09-12T02:03:47;95424.00;;;12.62;84.56
23339;BME280;11841;49.368;20.962;2022-09-12T02:06:31;95415.22;;;12.61;84.51
23339;BME280;11841;49.368;20.962;2022-09-12T02:09:26;95423.91;;;12.57;84.05
23339;BME280;11841;49.368;20.962;2022-09-12T02:11:59;95422.84;;;12.58;84.15
23339;BME280;11841;49.368;20.962;2022-09-12T02:14:41;95415.69;;;12.58;83.98
23339;BME280;11841;49.368;20.962;2022-09-12T02:17:12;95420.66;;;12.55;83.48
23339;BME280;11841;49.368;20.962;2022-09-12T02:20:03;95423.81;;;12.52;83.13
23339;BME280;11841;49.368;20.962;2022-09-12T02:22:34;95423.91;;;12.57;83.26
23339;BME280;11841;49.368;20.962;2022-09-12T02:25:04;95426.31;;;12.58;83.16
23339;BME280;11841;49.368;20.962;2022-09-12T02:27:39;95422.28;;;12.56;83.38
23339;BME280;11841;49.368;20.962;2022-09-12T02:30:07;95419.41;;;12.57;83.60
23339;BME280;11841;49.368;20.962;2022-09-12T02:32:55;95419.72;;;12.61;83.65
23339;BME280;11841;49.368;20.962;2022-09-12T02:40:37;95424.38;;;12.54;84.20
23339;BME280;11841;49.368;20.962;2022-09-12T02:43:05;95415.34;;;12.55;84.32
23339;BME280;11841;49.368;20.962;2022-09-12T02:45:33;95417.44;;;12.53;84.13
23339;BME280;11841;49.368;20.962;2022-09-12T02:48:07;95410.03;;;12.55;83.97
23339;BME280;11841;49.368;20.962;2022-09-12T02:50:39;95418.25;;;12.53;83.94
23339;BME280;11841;49.368;20.962;2022-09-12T02:53:07;95424.50;;;12.47;83.64
23339;BME280;11841;49.368;20.962;2022-09-12T02:55:35;95420.03;;;12.36;84.03
23339;BME280;11841;49.368;20.962;2022-09-12T02:58:07;95430.75;;;12.41;83.79
23339;BME280;11841;49.368;20.962;2022-09-12T03:00:46;95429.50;;;12.44;83.20
23339;BME280;11841;49.368;20.962;2022-09-12T03:03:42;95423.38;;;12.43;82.03
23339;BME280;11841;49.368;20.962;2022-09-12T03:06:17;95427.03;;;12.42;82.02
23339;BME280;11841;49.368;20.962;2022-09-12T03:11:42;95431.69;;;12.47;80.85
23339;BME280;11841;49.368;20.962;2022-09-12T03:14:30;95425.91;;;12.38;80.57
23339;BME280;11841;49.368;20.962;2022-09-12T03:24:41;95437.47;;;12.32;78.53
23339;BME280;11841;49.368;20.962;2022-09-12T03:27:21;95443.59;;;12.33;77.90
23339;BME280;11841;49.368;20.962;2022-09-12T03:29:51;95435.06;;;12.31;78.27
23339;BME280;11841;49.368;20.962;2022-09-12T03:32:18;95430.78;;;12.30;78.55
23339;BME280;11841;49.368;20.962;2022-09-12T03:34:45;95431.38;;;12.32;79.15
23339;BME280;11841;49.368;20.962;2022-09-12T03:37:11;95442.69;;;12.27;79.38
23339;BME280;11841;49.368;20.962;2022-09-12T03:39:38;95447.09;;;12.22;79.73
23339;BME280;11841;49.368;20.962;2022-09-12T03:42:04;95435.88;;;12.20;79.81
23339;BME280;11841;49.368;20.962;2022-09-12T03:44:32;95434.03;;;12.20;80.00
23339;BME280;11841;49.368;20.962;2022-09-12T03:46:58;95445.47;;;12.21;79.18
23339;BME280;11841;49.368;20.962;2022-09-12T03:49:25;95428.59;;;12.15;79.67
23339;BME280;11841;49.368;20.962;2022-09-12T03:51:51;95437.03;;;12.12;79.65
23339;BME280;11841;49.368;20.962;2022-09-12T03:54:17;95441.88;;;12.15;79.98
23339;BME280;11841;49.368;20.962;2022-09-12T03:56:44;95444.56;;;12.03;79.77
23339;BME280;11841;49.368;20.962;2022-09-12T03:59:10;95440.97;;;11.98;80.62
23339;BME280;11841;49.368;20.962;2022-09-12T04:01:37;95442.72;;;12.04;80.61
23339;BME280;11841;49.368;20.962;2022-09-12T04:04:04;95445.72;;;12.07;80.71
23339;BME280;11841;49.368;20.962;2022-09-12T04:06:30;95442.13;;;12.02;80.75
23339;BME280;11841;49.368;20.962;2022-09-12T04:08:57;95440.53;;;12.01;81.02
23339;BME280;11841;49.368;20.962;2022-09-12T04:11:23;95446.19;;;12.04;80.85
23339;BME280;11841;49.368;20.962;2022-09-12T04:13:50;95449.75;;;11.98;81.35
23339;BME280;11841;49.368;20.962;2022-09-12T04:16:17;95453.47;;;11.97;80.92
23339;BME280;11841;49.368;20.962;2022-09-12T04:18:45;95443.06;;;11.96;80.95
23339;BME280;11841;49.368;20.962;2022-09-12T04:21:17;95453.56;;;12.02;80.95
23339;BME280;11841;49.368;20.962;2022-09-12T04:23:44;95457.59;;;12.05;79.72
23339;BME280;11841;49.368;20.962;2022-09-12T04:26:11;95454.28;;;12.09;79.75
23339;BME280;11841;49.368;20.962;2022-09-12T04:28:40;95469.41;;;12.09;79.74
23339;BME280;11841;49.368;20.962;2022-09-12T04:31:09;95449.97;;;12.08;79.31
23339;BME280;11841;49.368;20.962;2022-09-12T04:33:37;95459.13;;;12.12;78.98
23339;BME280;11841;49.368;20.962;2022-09-12T04:36:06;95462.78;;;12.11;78.87
23339;BME280;11841;49.368;20.962;2022-09-12T04:38:34;95463.63;;;12.00;77.18
23339;BME280;11841;49.368;20.962;2022-09-12T04:41:21;95466.63;;;12.04;78.14
23339;BME280;11841;49.368;20.962;2022-09-12T04:43:53;95471.13;;;12.03;77.61
23339;BME280;11841;49.368;20.962;2022-09-12T04:46:20;95456.81;;;12.04;78.24
23339;BME280;11841;49.368;20.962;2022-09-12T04:48:47;95468.22;;;12.05;78.10
23339;BME280;11841;49.368;20.962;2022-09-12T04:51:22;95461.66;;;12.07;78.10
23339;BME280;11841;49.368;20.962;2022-09-12T04:53:52;95471.22;;;12.08;78.42
23339;BME280;11841;49.368;20.962;2022-09-12T04:56:20;95469.16;;;12.10;78.61
23339;BME280;11841;49.368;20.962;2022-09-12T04:58:47;95480.59;;;12.11;78.54
23339;BME280;11841;49.368;20.962;2022-09-12T05:01:19;95478.41;;;12.08;78.24
23339;BME280;11841;49.368;20.962;2022-09-12T05:03:47;95476.56;;;12.08;77.73
23339;BME280;11841;49.368;20.962;2022-09-12T05:06:20;95474.13;;;12.07;77.88
23339;BME280;11841;49.368;20.962;2022-09-12T05:08:47;95474.47;;;12.10;78.11
23339;BME280;11841;49.368;20.962;2022-09-12T05:11:16;95479.91;;;12.15;78.51
23339;BME280;11841;49.368;20.962;2022-09-12T05:13:50;95485.56;;;12.19;78.89
23339;BME280;11841;49.368;20.962;2022-09-12T05:16:18;95482.91;;;12.19;78.30
23339;BME280;11841;49.368;20.962;2022-09-12T05:18:45;95483.84;;;12.25;77.73
23339;BME280;11841;49.368;20.962;2022-09-12T05:21:14;95479.34;;;12.25;77.67
23339;BME280;11841;49.368;20.962;2022-09-12T05:23:41;95480.38;;;12.24;76.93
23339;BME280;11841;49.368;20.962;2022-09-12T05:26:11;95483.84;;;12.25;77.58
23339;BME280;11841;49.368;20.962;2022-09-12T05:28:38;95498.25;;;12.29;77.41
23339;BME280;11841;49.368;20.962;2022-09-12T05:31:08;95489.03;;;12.31;77.74
23339;BME280;11841;49.368;20.962;2022-09-12T05:33:37;95502.09;;;12.33;77.60
23339;BME280;11841;49.368;20.962;2022-09-12T05:36:05;95506.50;;;12.39;77.00
23339;BME280;11841;49.368;20.962;2022-09-12T05:38:36;95502.31;;;12.43;76.45
23339;BME280;11841;49.368;20.962;2022-09-12T05:41:10;95506.38;;;12.45;76.40
23339;BME280;11841;49.368;20.962;2022-09-12T05:43:43;95516.28;;;12.50;75.89
23339;BME280;11841;49.368;20.962;2022-09-12T05:46:15;95519.78;;;12.50;74.48
23339;BME280;11841;49.368;20.962;2022-09-12T05:48:43;95508.31;;;12.50;74.48
23339;BME280;11841;49.368;20.962;2022-09-12T05:51:13;95512.56;;;12.51;73.91
23339;BME280;11841;49.368;20.962;2022-09-12T05:53:42;95498.25;;;12.52;73.92
23339;BME280;11841;49.368;20.962;2022-09-12T05:56:18;95508.19;;;12.56;74.15
23339;BME280;11841;49.368;20.962;2022-09-12T05:58:46;95500.78;;;12.58;73.42
23339;BME280;11841;49.368;20.962;2022-09-12T06:01:15;95514.91;;;12.59;73.89
23339;BME280;11841;49.368;20.962;2022-09-12T06:03:45;95505.88;;;12.60;73.85
23339;BME280;11841;49.368;20.962;2022-09-12T06:06:12;95510.59;;;12.58;72.86
23339;BME280;11841;49.368;20.962;2022-09-12T06:08:42;95511.19;;;12.60;73.56
23339;BME280;11841;49.368;20.962;2022-09-12T06:11:12;95514.31;;;12.57;73.38
23339;BME280;11841;49.368;20.962;2022-09-12T06:13:39;95522.31;;;12.57;72.56
23339;BME280;11841;49.368;20.962;2022-09-12T06:16:09;95524.38;;;12.55;72.66
23339;BME280;11841;49.368;20.962;2022-09-12T06:18:37;95529.94;;;12.53;72.48
23339;BME280;11841;49.368;20.962;2022-09-12T06:21:07;95542.53;;;12.58;72.53
23339;BME280;11841;49.368;20.962;2022-09-12T06:23:34;95539.88;;;12.58;72.09
23339;BME280;11841;49.368;20.962;2022-09-12T06:26:01;95527.38;;;12.58;72.02
23339;BME280;11841;49.368;20.962;2022-09-12T06:28:27;95516.28;;;12.61;73.27
23339;BME280;11841;49.368;20.962;2022-09-12T06:31:01;95529.91;;;12.65;72.76
23339;BME280;11841;49.368;20.962;2022-09-12T06:33:33;95523.09;;;12.69;72.45
23339;BME280;11841;49.368;20.962;2022-09-12T06:36:02;95515.22;;;12.74;71.79
23339;BME280;11841;49.368;20.962;2022-09-12T06:38:35;95528.53;;;12.74;71.16
23339;BME280;11841;49.368;20.962;2022-09-12T06:41:03;95529.53;;;12.73;70.51
23339;BME280;11841;49.368;20.962;2022-09-12T06:43:30;95537.31;;;12.74;70.15
23339;BME280;11841;49.368;20.962;2022-09-12T06:45:57;95534.53;;;12.81;70.48
23339;BME280;11841;49.368;20.962;2022-09-12T06:48:24;95526.06;;;12.84;69.64
23339;BME280;11841;49.368;20.962;2022-09-12T06:50:59;95536.25;;;12.87;69.03
23339;BME280;11841;49.368;20.962;2022-09-12T06:53:27;95532.22;;;12.84;67.99
23339;BME280;11841;49.368;20.962;2022-09-12T06:55:58;95521.91;;;12.88;67.51
23339;BME280;11841;49.368;20.962;2022-09-12T06:58:26;95537.06;;;12.87;67.06
23339;BME280;11841;49.368;20.962;2022-09-12T07:01:00;95535.66;;;12.85;65.40
23339;BME280;11841;49.368;20.962;2022-09-12T07:03:29;95520.75;;;12.84;67.03
23339;BME280;11841;49.368;20.962;2022-09-12T07:05:55;95535.75;;;12.90;66.62
23339;BME280;11841;49.368;20.962;2022-09-12T07:08:22;95533.69;;;12.92;66.05
23339;BME280;11841;49.368;20.962;2022-09-12T07:10:49;95525.13;;;12.90;66.80
23339;BME280;11841;49.368;20.962;2022-09-12T07:13:15;95533.44;;;12.93;66.51
23339;BME280;11841;49.368;20.962;2022-09-12T07:15:42;95518.06;;;12.95;66.22
23339;BME280;11841;49.368;20.962;2022-09-12T07:18:09;95523.03;;;12.92;66.19
23339;BME280;11841;49.368;20.962;2022-09-12T07:20:36;95517.25;;;12.95;66.80
23339;BME280;11841;49.368;20.962;2022-09-12T07:23:04;95537.41;;;12.91;64.80
23339;BME280;11841;49.368;20.962;2022-09-12T07:25:30;95531.59;;;12.94;65.64
23339;BME280;11841;49.368;20.962;2022-09-12T07:27:57;95544.19;;;12.98;65.73
23339;BME280;11841;49.368;20.962;2022-09-12T07:30:24;95563.19;;;13.02;65.58
23339;BME280;11841;49.368;20.962;2022-09-12T07:32:53;95548.25;;;13.01;65.35
23339;BME280;11841;49.368;20.962;2022-09-12T07:35:20;95529.41;;;13.02;65.61
23339;BME280;11841;49.368;20.962;2022-09-12T07:37:47;95552.75;;;13.00;65.31
23339;BME280;11841;49.368;20.962;2022-09-12T07:40:13;95540.06;;;13.02;66.20
23339;BME280;11841;49.368;20.962;2022-09-12T07:42:40;95543.63;;;13.08;66.21
23339;BME280;11841;49.368;20.962;2022-09-12T07:45:06;95541.06;;;13.13;65.57
23339;BME280;11841;49.368;20.962;2022-09-12T07:47:33;95545.91;;;13.16;65.13
23339;BME280;11841;49.368;20.962;2022-09-12T07:50:00;95536.88;;;13.17;64.81
23339;BME280;11841;49.368;20.962;2022-09-12T07:52:26;95539.09;;;13.20;64.97
23339;BME280;11841;49.368;20.962;2022-09-12T07:54:53;95539.19;;;13.25;65.27
23339;BME280;11841;49.368;20.962;2022-09-12T07:57:19;95538.69;;;13.28;65.55
23339;BME280;11841;49.368;20.962;2022-09-12T07:59:46;95534.50;;;13.32;65.73
23339;BME280;11841;49.368;20.962;2022-09-12T08:02:18;95538.88;;;13.38;65.38
23339;BME280;11841;49.368;20.962;2022-09-12T08:04:46;95537.94;;;13.44;64.76
23339;BME280;11841;49.368;20.962;2022-09-12T08:07:14;95544.69;;;13.35;62.18
23339;BME280;11841;49.368;20.962;2022-09-12T08:09:41;95539.38;;;13.35;62.77
23339;BME280;11841;49.368;20.962;2022-09-12T08:12:07;95551.06;;;13.34;63.53
23339;BME280;11841;49.368;20.962;2022-09-12T08:14:34;95533.38;;;13.28;63.37
23339;BME280;11841;49.368;20.962;2022-09-12T08:17:00;95541.94;;;13.30;63.96
23339;BME280;11841;49.368;20.962;2022-09-12T08:19:27;95544.22;;;13.38;64.52
23339;BME280;11841;49.368;20.962;2022-09-12T08:21:53;95553.44;;;13.47;64.59
23339;BME280;11841;49.368;20.962;2022-09-12T08:24:19;95556.44;;;13.51;63.41
23339;BME280;11841;49.368;20.962;2022-09-12T08:26:46;95549.72;;;13.48;62.88
23339;BME280;11841;49.368;20.962;2022-09-12T08:29:13;95552.97;;;13.50;63.93
23339;BME280;11841;49.368;20.962;2022-09-12T08:31:39;95544.41;;;13.48;61.93
23339;BME280;11841;49.368;20.962;2022-09-12T08:34:08;95540.78;;;13.54;62.92
23339;BME280;11841;49.368;20.962;2022-09-12T08:36:35;95534.50;;;13.60;61.89
23339;BME280;11841;49.368;20.962;2022-09-12T08:39:04;95538.00;;;13.61;62.31
23339;BME280;11841;49.368;20.962;2022-09-12T08:41:42;95542.97;;;13.57;62.02
23339;BME280;11841;49.368;20.962;2022-09-12T08:44:36;95548.31;;;13.57;62.64
23339;BME280;11841;49.368;20.962;2022-09-12T08:52:14;95559.63;;;13.64;59.06
23339;BME280;11841;49.368;20.962;2022-09-12T08:54:42;95556.00;;;13.70;59.76
23339;BME280;11841;49.368;20.962;2022-09-12T08:57:11;95560.25;;;13.71;60.85
23339;BME280;11841;49.368;20.962;2022-09-12T08:59:44;95562.72;;;13.73;60.96
23339;BME280;11841;49.368;20.962;2022-09-12T09:05:18;95551.47;;;13.71;61.83
23339;BME280;11841;49.368;20.962;2022-09-12T09:08:29;95551.00;;;13.74;63.05
23339;BME280;11841;49.368;20.962;2022-09-12T09:11:11;95552.84;;;13.73;63.51
23339;BME280;11841;49.368;20.962;2022-09-12T09:16:48;95557.91;;;13.86;62.18
23339;BME280;11841;49.368;20.962;2022-09-12T09:19:27;95568.06;;;13.89;60.82
23339;BME280;11841;49.368;20.962;2022-09-12T09:22:03;95566.53;;;13.93;61.75
23339;BME280;11841;49.368;20.962;2022-09-12T09:24:38;95557.56;;;13.99;61.27
23339;BME280;11841;49.368;20.962;2022-09-12T09:27:27;95568.56;;;14.03;61.61
23339;BME280;11841;49.368;20.962;2022-09-12T09:30:17;95560.72;;;14.13;61.62
23339;BME280;11841;49.368;20.962;2022-09-12T09:32:54;95565.91;;;14.19;61.88
23339;BME280;11841;49.368;20.962;2022-09-12T09:35:43;95572.50;;;14.28;62.23
23339;BME280;11841;49.368;20.962;2022-09-12T09:43:39;95567.16;;;14.28;61.15
23339;BME280;11841;49.368;20.962;2022-09-12T09:46:06;95581.13;;;14.35;61.21
23339;BME280;11841;49.368;20.962;2022-09-12T09:48:53;95584.28;;;14.32;60.25
23339;BME280;11841;49.368;20.962;2022-09-12T09:51:26;95577.34;;;14.31;60.26
23339;BME280;11841;49.368;20.962;2022-09-12T09:53:57;95569.72;;;14.40;61.66
23339;BME280;11841;49.368;20.962;2022-09-12T09:56:33;95569.56;;;14.46;61.14
23339;BME280;11841;49.368;20.962;2022-09-12T10:01:56;95565.19;;;14.57;59.21
23339;BME280;11841;49.368;20.962;2022-09-12T10:04:34;95570.84;;;14.61;59.27
23339;BME280;11841;49.368;20.962;2022-09-12T10:07:17;95574.09;;;14.63;58.74
23339;BME280;11841;49.368;20.962;2022-09-12T10:10:14;95569.03;;;14.66;58.10
23339;BME280;11841;49.368;20.962;2022-09-12T10:12:41;95565.09;;;14.69;59.06
23339;BME280;11841;49.368;20.962;2022-09-12T10:15:22;95574.06;;;14.79;59.23
23339;BME280;11841;49.368;20.962;2022-09-12T10:17:51;95564.97;;;14.80;58.44
23339;BME280;11841;49.368;20.962;2022-09-12T10:23:01;95597.72;;;14.92;59.12
23339;BME280;11841;49.368;20.962;2022-09-12T10:25:29;95566.25;;;14.94;57.91
23339;BME280;11841;49.368;20.962;2022-09-12T10:27:59;95568.84;;;14.89;58.17
23339;BME280;11841;49.368;20.962;2022-09-12T10:30:26;95572.09;;;14.91;59.02
23339;BME280;11841;49.368;20.962;2022-09-12T10:33:04;95588.03;;;14.86;56.39
23339;BME280;11841;49.368;20.962;2022-09-12T10:35:43;95592.97;;;14.78;56.36
23339;BME280;11841;49.368;20.962;2022-09-12T10:38:22;95583.84;;;14.74;56.03
23339;BME280;11841;49.368;20.962;2022-09-12T10:41:00;95588.69;;;14.77;56.66
23339;BME280;11841;49.368;20.962;2022-09-12T10:48:50;95591.50;;;14.87;55.33
23339;BME280;11841;49.368;20.962;2022-09-12T10:53:51;95607.72;;;15.02;53.88
23339;BME280;11841;49.368;20.962;2022-09-12T10:56:29;95600.84;;;15.06;54.09
23339;BME280;11841;49.368;20.962;2022-09-12T11:01:39;95607.31;;;15.10;55.40
23339;BME280;11841;49.368;20.962;2022-09-12T11:12:10;95603.19;;;15.24;53.95
23339;BME280;11841;49.368;20.962;2022-09-12T11:17:50;95590.00;;;15.34;55.00
23339;BME280;11841;49.368;20.962;2022-09-12T11:20:34;95595.25;;;15.29;54.40
23339;BME280;11841;49.368;20.962;2022-09-12T11:29:24;95611.47;;;15.22;54.09
23339;BME280;11841;49.368;20.962;2022-09-12T11:39:38;95588.06;;;15.51;53.04
23339;BME280;11841;49.368;20.962;2022-09-12T11:42:13;95595.72;;;15.64;52.74
23339;BME280;11841;49.368;20.962;2022-09-12T11:44:44;95602.72;;;15.70;52.63
23339;BME280;11841;49.368;20.962;2022-09-12T11:47:13;95604.34;;;15.71;52.63
23339;BME280;11841;49.368;20.962;2022-09-12T11:49:44;95598.41;;;15.64;50.53
23339;BME280;11841;49.368;20.962;2022-09-12T11:52:15;95594.66;;;15.65;51.21
23339;BME280;11841;49.368;20.962;2022-09-12T12:00:22;95632.47;;;15.79;52.63
23339;BME280;11841;49.368;20.962;2022-09-12T12:03:08;95614.66;;;15.84;51.94
23339;BME280;11841;49.368;20.962;2022-09-12T12:05:45;95624.94;;;15.97;52.47
23339;BME280;11841;49.368;20.962;2022-09-12T12:08:18;95625.34;;;16.11;51.96
23339;BME280;11841;49.368;20.962;2022-09-12T12:13:24;95623.44;;;16.06;51.84
23339;BME280;11841;49.368;20.962;2022-09-12T12:15:55;95595.66;;;16.12;52.90
23339;BME280;11841;49.368;20.962;2022-09-12T12:18:26;95630.00;;;16.20;50.29
23339;BME280;11841;49.368;20.962;2022-09-12T12:20:55;95624.13;;;16.23;49.91
23339;BME280;11841;49.368;20.962;2022-09-12T12:23:31;95613.94;;;16.20;50.56
23339;BME280;11841;49.368;20.962;2022-09-12T12:26:01;95612.00;;;16.16;50.34
23339;BME280;11841;49.368;20.962;2022-09-12T12:31:03;95608.91;;;16.24;51.01
23339;BME280;11841;49.368;20.962;2022-09-12T12:38:32;95610.25;;;16.58;52.20
23339;BME280;11841;49.368;20.962;2022-09-12T12:43:48;95626.50;;;16.78;50.92
23339;BME280;11841;49.368;20.962;2022-09-12T12:46:17;95648.31;;;16.65;51.22
23339;BME280;11841;49.368;20.962;2022-09-12T12:53:42;95618.25;;;16.53;51.20
23339;BME280;11841;49.368;20.962;2022-09-12T12:56:41;95613.41;;;16.50;50.58
23339;BME280;11841;49.368;20.962;2022-09-12T12:59:27;95613.72;;;16.53;51.17
23339;BME280;11841;49.368;20.962;2022-09-12T13:01:55;95628.22;;;16.57;50.98
23339;BME280;11841;49.368;20.962;2022-09-12T13:04:27;95611.97;;;16.69;51.37
23339;BME280;11841;49.368;20.962;2022-09-12T13:07:04;95605.53;;;16.70;51.62
23339;BME280;11841;49.368;20.962;2022-09-12T13:09:38;95616.56;;;16.78;51.82
23339;BME280;11841;49.368;20.962;2022-09-12T13:12:21;95630.81;;;16.84;51.82
23339;BME280;11841;49.368;20.962;2022-09-12T13:17:37;95623.25;;;16.76;52.41
23339;BME280;11841;49.368;20.962;2022-09-12T13:20:21;95621.16;;;16.78;51.47
23339;BME280;11841;49.368;20.962;2022-09-12T13:22:54;95619.44;;;16.67;50.99
23339;BME280;11841;49.368;20.962;2022-09-12T13:28:15;95614.81;;;16.57;50.41
23339;BME280;11841;49.368;20.962;2022-09-12T13:31:20;95616.16;;;16.28;51.65
23339;BME280;11841;49.368;20.962;2022-09-12T13:33:55;95602.63;;;16.13;52.14
23339;BME280;11841;49.368;20.962;2022-09-12T13:39:28;95599.50;;;16.21;53.24
23339;BME280;11841;49.368;20.962;2022-09-12T13:44:42;95615.97;;;16.40;52.54
23339;BME280;11841;49.368;20.962;2022-09-12T13:47:15;95609.84;;;16.44;52.97
23339;BME280;11841;49.368;20.962;2022-09-12T13:49:42;95607.31;;;16.54;53.13
23339;BME280;11841;49.368;20.962;2022-09-12T13:52:20;95603.94;;;16.69;52.59
23339;BME280;11841;49.368;20.962;2022-09-12T13:54:50;95608.50;;;16.73;51.74
23339;BME280;11841;49.368;20.962;2022-09-12T13:57:36;95610.44;;;16.78;52.09
23339;BME280;11841;49.368;20.962;2022-09-12T14:00:16;95602.13;;;16.79;51.60
23339;BME280;11841;49.368;20.962;2022-09-12T14:02:48;95617.03;;;16.65;51.76
23339;BME280;11841;49.368;20.962;2022-09-12T14:10:25;95607.81;;;16.51;51.60
23339;BME280;11841;49.368;20.962;2022-09-12T14:12:54;95605.31;;;16.45;52.72
23339;BME280;11841;49.368;20.962;2022-09-12T14:15:27;95605.00;;;16.41;52.73
23339;BME280;11841;49.368;20.962;2022-09-12T14:18:00;95604.16;;;16.36;52.44
23339;BME280;11841;49.368;20.962;2022-09-12T14:20:30;95603.38;;;16.35;52.90
23339;BME280;11841;49.368;20.962;2022-09-12T14:23:03;95599.59;;;16.31;52.35
23339;BME280;11841;49.368;20.962;2022-09-12T14:25:36;95607.56;;;16.26;52.55
23339;BME280;11841;49.368;20.962;2022-09-12T14:28:04;95616.97;;;16.29;51.54
23339;BME280;11841;49.368;20.962;2022-09-12T14:30:35;95612.44;;;16.34;51.85
23339;BME280;11841;49.368;20.962;2022-09-12T14:35:39;95618.94;;;16.43;51.75
23339;BME280;11841;49.368;20.962;2022-09-12T14:40:52;95609.66;;;16.46;52.28
23339;BME280;11841;49.368;20.962;2022-09-12T14:43:27;95603.53;;;16.50;52.06
23339;BME280;11841;49.368;20.962;2022-09-12T14:46:00;95612.41;;;16.56;52.63
23339;BME280;11841;49.368;20.962;2022-09-12T14:48:30;95614.78;;;16.52;53.02
23339;BME280;11841;49.368;20.962;2022-09-12T14:50:58;95620.63;;;16.49;53.72
23339;BME280;11841;49.368;20.962;2022-09-12T14:56:10;95619.97;;;16.37;51.80
23339;BME280;11841;49.368;20.962;2022-09-12T14:58:38;95611.84;;;16.27;53.15
23339;BME280;11841;49.368;20.962;2022-09-12T15:06:26;95622.63;;;16.32;52.15
23339;BME280;11841;49.368;20.962;2022-09-12T15:08:54;95609.69;;;16.24;52.04
23339;BME280;11841;49.368;20.962;2022-09-12T15:11:22;95607.16;;;16.13;51.93
23339;BME280;11841;49.368;20.962;2022-09-12T15:13:50;95614.63;;;16.11;52.61
23339;BME280;11841;49.368;20.962;2022-09-12T15:16:17;95614.91;;;16.09;52.96
23339;BME280;11841;49.368;20.962;2022-09-12T15:18:44;95617.88;;;16.13;52.76
23339;BME280;11841;49.368;20.962;2022-09-12T15:21:14;95613.34;;;16.13;52.72
23339;BME280;11841;49.368;20.962;2022-09-12T15:26:11;95603.69;;;16.12;53.58
23339;BME280;11841;49.368;20.962;2022-09-12T15:28:37;95594.06;;;16.11;53.82
23339;BME280;11841;49.368;20.962;2022-09-12T15:31:09;95603.94;;;16.11;54.10
23339;BME280;11841;49.368;20.962;2022-09-12T15:33:37;95621.94;;;16.15;54.41
23339;BME280;11841;49.368;20.962;2022-09-12T15:36:11;95615.25;;;16.18;54.47
23339;BME280;11841;49.368;20.962;2022-09-12T15:38:38;95613.13;;;16.20;54.22
23339;BME280;11841;49.368;20.962;2022-09-12T15:41:10;95616.38;;;16.22;54.34
23339;BME280;11841;49.368;20.962;2022-09-12T15:43:36;95617.66;;;16.19;53.39